Time;durP1;ratioP1;P1;durP2;ratioP2;P2;SDS_P1;SDS_P2;PMS_P1;PMS_P2;Temp;Humidity;BMP_temperature;BMP_pressure;BME280_temperature;BME280_humidity;BME280_pressure;Samples;Min_cycle;Max_cycle;Signal;HPM_P1;HPM_P2
2022/01/04 00:01:52;;;;;;;10.38;1.90;;;;;;;12.53;54.29;99927.56;6017150;23;98768;-75
2022/01/04 00:04:19;;;;;;;5.63;2.30;;;;;;;12.47;54.28;99932.34;6016056;23;96488;-77
2022/01/04 00:06:46;;;;;;;3.55;1.48;;;;;;;12.51;54.19;99924.13;6020985;23;96627;-77
2022/01/04 00:09:12;;;;;;;5.38;1.10;;;;;;;12.65;53.96;99915.41;6019450;23;97803;-76
2022/01/04 00:11:57;;;;;;;8.85;1.95;;;;;;;12.47;54.23;99922.56;6005075;23;97800;-76
2022/01/04 00:14:24;;;;;;;8.68;1.77;;;;;;;12.54;54.42;99909.81;6003579;23;97310;-77
2022/01/04 00:16:54;;;;;;;4.95;1.30;;;;;;;12.57;54.28;99918.47;6004396;23;96654;-76
2022/01/04 00:19:21;;;;;;;5.38;1.45;;;;;;;12.39;54.60;99906.28;6004507;23;99328;-75
2022/01/04 00:21:47;;;;;;;8.57;1.40;;;;;;;12.63;54.35;99901.38;6004402;23;99344;-77
2022/01/04 00:24:14;;;;;;;5.78;1.40;;;;;;;12.49;53.95;99894.19;6002244;23;96664;-76
2022/01/04 00:26:42;;;;;;;5.18;1.20;;;;;;;12.62;53.90;99889.06;6004053;23;97043;-75
2022/01/04 00:29:08;;;;;;;4.25;1.05;;;;;;;12.38;54.50;99888.66;6002964;23;97813;-76
2022/01/04 00:31:34;;;;;;;4.18;1.02;;;;;;;12.39;54.49;99885.06;6003774;23;97970;-76
2022/01/04 00:34:01;;;;;;;6.95;1.50;;;;;;;12.37;54.07;99892.25;6004068;23;96811;-75
2022/01/04 00:36:27;;;;;;;3.47;1.25;;;;;;;12.40;54.45;99883.28;6002578;23;96884;-76
2022/01/04 00:38:54;;;;;;;10.10;1.40;;;;;;;12.38;54.49;99886.88;6003273;23;98912;-76
2022/01/04 00:41:20;;;;;;;7.68;1.30;;;;;;;12.23;54.87;99887.72;6004791;23;101589;-76
2022/01/04 00:43:48;;;;;;;4.47;1.40;;;;;;;12.37;54.43;99879.00;6003286;23;97105;-76
2022/01/04 00:46:17;;;;;;;8.05;1.50;;;;;;;12.28;54.54;99875.06;6003832;23;96897;-76
2022/01/04 00:51:27;;;;;;;3.83;1.10;;;;;;;12.58;54.18;99861.03;6010681;23;97083;-78
2022/01/04 00:53:55;;;;;;;5.78;1.23;;;;;;;12.47;53.97;99851.03;6015174;23;97177;-75
2022/01/04 00:56:22;;;;;;;4.70;1.27;;;;;;;12.49;54.18;99857.09;6007701;23;96988;-77
2022/01/04 00:59:19;;;;;;;7.45;1.65;;;;;;;12.31;54.53;99856.38;6010310;23;99193;-80
2022/01/04 01:01:46;;;;;;;;;;;;;;;12.46;54.36;99853.78;6003773;23;100881;-77
2022/01/04 01:04:26;;;;;;;3.90;1.10;;;;;;;12.46;53.85;99841.41;6004447;23;96633;-76
2022/01/04 01:06:55;;;;;;;3.20;1.40;;;;;;;12.47;54.01;99837.78;6005732;23;97032;-77
2022/01/04 01:09:24;;;;;;;5.05;1.38;;;;;;;12.56;54.21;99836.41;6002829;23;99227;-78
2022/01/04 01:11:52;;;;;;;7.63;1.20;;;;;;;12.68;53.88;99833.03;6003154;23;98761;-77
2022/01/04 01:14:21;;;;;;;6.68;1.05;;;;;;;12.43;53.83;99832.75;6003497;23;96851;-77
2022/01/04 01:16:50;;;;;;;7.15;1.20;;;;;;;12.55;53.90;99829.38;6003389;23;97070;-76
2022/01/04 01:19:20;;;;;;;3.65;1.35;;;;;;;12.37;54.67;99824.22;6003231;23;98892;-77
2022/01/04 01:21:47;;;;;;;5.28;1.13;;;;;;;12.48;54.10;99828.03;6004157;23;100007;-76
2022/01/04 01:24:13;;;;;;;3.42;0.93;;;;;;;12.16;55.23;99817.50;6003343;23;96659;-75
2022/01/04 01:26:40;;;;;;;2.53;0.93;;;;;;;12.11;55.16;99814.25;6003637;23;97005;-75
2022/01/04 01:29:06;;;;;;;6.60;1.13;;;;;;;12.07;55.50;99811.88;6003060;23;97795;-76
2022/01/04 01:31:34;;;;;;;4.38;0.90;;;;;;;11.81;56.30;99805.38;6003969;23;98741;-76
2022/01/04 01:34:00;;;;;;;3.63;0.77;;;;;;;12.26;55.02;99813.41;6003605;23;96799;-76
2022/01/04 01:36:27;;;;;;;4.40;0.85;;;;;;;12.30;54.50;99806.13;6003037;23;96881;-76
2022/01/04 01:38:53;;;;;;;4.97;1.20;;;;;;;12.36;54.58;99801.31;6002972;23;99125;-76
2022/01/04 01:41:20;;;;;;;2.85;0.90;;;;;;;12.40;54.23;99793.22;6004225;23;98032;-77
2022/01/04 01:43:47;;;;;;;5.65;1.10;;;;;;;12.26;54.46;99794.00;6002152;23;97190;-76
2022/01/04 01:46:13;;;;;;;4.78;1.00;;;;;;;12.34;54.44;99783.78;6003166;23;96835;-75
2022/01/04 01:48:42;;;;;;;3.53;0.90;;;;;;;12.46;54.39;99782.25;5999672;23;99042;-76
2022/01/04 01:51:08;;;;;;;3.17;0.80;;;;;;;12.47;53.99;99768.88;6002396;23;98752;-77
2022/01/04 01:53:35;;;;;;;6.38;0.75;;;;;;;12.45;54.25;99769.94;6001434;23;96733;-76
2022/01/04 01:56:01;;;;;;;4.50;0.93;;;;;;;12.41;54.61;99769.25;6002820;23;97135;-75
2022/01/04 01:59:10;;;;;;;8.20;1.30;;;;;;;12.18;55.20;99767.94;6003392;23;98916;-79
2022/01/04 02:01:37;;;;;;;4.28;1.25;;;;;;;12.35;54.57;99756.38;5974140;23;98798;-76
2022/01/04 02:04:10;;;;;;;5.35;0.95;;;;;;;12.40;53.87;99756.13;6003033;23;96581;-79
2022/01/04 02:06:40;;;;;;;5.03;0.77;;;;;;;12.44;54.20;99745.25;6003894;23;97311;-78
2022/01/04 02:09:08;;;;;;;5.43;0.90;;;;;;;12.52;54.02;99752.75;6003658;23;99030;-77
2022/01/04 02:11:45;;;;;;;;;;;;;;;;;;;;;
2022/01/04 02:14:12;;;;;;;4.18;0.90;;;;;;;12.56;53.94;99741.00;6002362;23;118657;-76
2022/01/04 02:16:41;;;;;;;3.17;0.70;;;;;;;12.34;54.11;99736.97;6004308;23;96800;-78
2022/01/04 02:19:09;;;;;;;6.30;0.93;;;;;;;12.27;54.48;99727.66;6003514;23;99082;-77
2022/01/04 02:21:37;;;;;;;5.18;1.00;;;;;;;12.26;54.31;99726.00;6003576;23;98759;-76
2022/01/04 02:24:05;;;;;;;2.95;0.95;;;;;;;12.32;54.75;99728.28;6002791;23;96629;-76
2022/01/04 02:26:33;;;;;;;1.52;0.57;;;;;;;12.45;53.64;99716.94;6002833;23;96781;-77
2022/01/04 02:29:01;;;;;;;5.07;0.93;;;;;;;12.28;54.54;99713.47;6003140;23;99240;-79
2022/01/04 02:31:29;;;;;;;2.75;0.77;;;;;;;12.06;54.95;99715.69;6003462;23;99108;-76
2022/01/04 02:33:56;;;;;;;3.63;0.90;;;;;;;12.17;55.06;99702.69;6003315;23;97179;-77
2022/01/04 02:36:22;;;;;;;8.82;0.90;;;;;;;12.11;55.14;99697.75;6003256;23;96926;-77
2022/01/04 02:38:58;;;;;;;4.93;1.15;;;;;;;12.07;54.98;99690.94;6003473;23;99519;-77
2022/01/04 02:41:24;;;;;;;3.25;0.73;;;;;;;12.22;54.82;99687.34;6003262;23;97922;-77
2022/01/04 02:43:53;;;;;;;4.28;0.90;;;;;;;12.45;54.52;99682.50;6003500;23;96650;-77
2022/01/04 02:46:19;;;;;;;4.78;0.65;;;;;;;12.39;54.57;99681.09;6003424;23;97255;-77
2022/01/04 02:48:46;;;;;;;2.47;1.10;;;;;;;12.35;54.61;99683.03;6003495;23;99375;-78
2022/01/04 02:51:13;;;;;;;2.80;0.88;;;;;;;12.38;54.33;99672.28;6003928;23;98651;-76
2022/01/04 02:53:41;;;;;;;4.90;0.77;;;;;;;12.44;54.00;99673.72;6003238;23;97124;-78
2022/01/04 02:56:11;;;;;;;2.53;0.63;;;;;;;12.34;54.59;99672.53;6003202;23;96863;-77
2022/01/04 02:58:39;;;;;;;1.60;0.60;;;;;;;12.41;54.67;99667.72;6024442;23;98162;-77
2022/01/04 03:01:06;;;;;;;4.40;0.80;;;;;;;12.48;54.16;99666.41;6027924;23;101775;-76
2022/01/04 03:03:36;;;;;;;1.35;0.60;;;;;;;12.46;54.57;99669.19;6028365;23;96647;-76
2022/01/04 03:06:05;;;;;;;2.67;0.68;;;;;;;12.55;53.97;99665.94;6014699;23;96509;-77
2022/01/04 03:08:33;;;;;;;3.72;0.90;;;;;;;12.46;54.67;99669.19;6004304;23;98912;-77
2022/01/04 03:11:01;;;;;;;1.98;0.70;;;;;;;12.55;54.15;99665.94;6004597;23;98767;-77
2022/01/04 03:13:36;;;;;;;2.25;0.73;;;;;;;12.50;54.15;99675.13;6003848;23;96573;-76
2022/01/04 03:16:09;;;;;;;2.60;0.60;;;;;;;12.50;54.54;99659.22;6004533;23;96729;-77
2022/01/04 03:18:46;;;;;;;2.78;0.95;;;;;;;12.57;54.05;99663.22;6004401;23;99051;-78
2022/01/04 03:21:12;;;;;;;;;;;;;;;12.63;54.21;99653.09;6004914;23;98786;-76
2022/01/04 03:23:39;;;;;;;6.23;0.70;;;;;;;12.51;54.45;99653.00;6004630;23;96897;-77
2022/01/04 03:26:05;;;;;;;2.90;1.02;;;;;;;12.36;55.08;99645.00;6004035;23;96835;-76
2022/01/04 03:28:33;;;;;;;2.33;0.70;;;;;;;12.47;54.60;99640.88;6003285;23;98506;-76
2022/01/04 03:31:00;;;;;;;2.65;0.70;;;;;;;12.58;54.47;99641.94;6004310;23;99138;-77
2022/01/04 03:33:26;;;;;;;2.15;0.55;;;;;;;12.44;54.59;99630.47;6005772;23;96588;-76
2022/01/04 03:35:54;;;;;;;3.35;0.73;;;;;;;12.50;54.95;99630.09;6011306;23;97154;-77
2022/01/04 03:38:21;;;;;;;2.42;0.70;;;;;;;12.54;54.64;99626.28;6011415;23;98498;-75
2022/01/04 03:40:47;;;;;;;3.13;0.75;;;;;;;12.53;54.87;99624.63;6010081;23;101598;-77
2022/01/04 03:43:14;;;;;;;0.82;0.57;;;;;;;12.53;54.79;99629.91;6004170;23;96591;-77
2022/01/04 03:45:41;;;;;;;2.17;0.60;;;;;;;12.42;54.89;99627.03;6004309;23;99340;-73
2022/01/04 03:48:08;;;;;;;1.20;0.68;;;;;;;12.50;54.95;99614.19;6001942;23;99011;-73
2022/01/04 03:50:34;;;;;;;2.75;0.60;;;;;;;12.52;54.74;99607.88;6003661;23;98739;-72
2022/01/04 03:53:00;;;;;;;4.45;0.90;;;;;;;12.40;55.05;99610.41;6004604;23;96966;-72
2022/01/04 03:55:27;;;;;;;5.68;0.90;;;;;;;12.31;55.33;99611.81;6004832;23;96765;-72
2022/01/04 03:57:53;;;;;;;0.88;0.70;;;;;;;12.38;55.47;99600.75;6004894;23;98980;-72
2022/01/04 04:00:19;;;;;;;2.67;0.80;;;;;;;12.47;55.21;99586.06;6009171;23;98922;-72
2022/01/04 04:02:47;;;;;;;3.13;0.80;;;;;;;12.17;55.70;99596.75;6010960;23;96548;-74
2022/01/04 04:05:15;;;;;;;2.33;0.77;;;;;;;12.42;55.51;99589.94;6013225;23;97493;-73
2022/01/04 04:07:41;;;;;;;4.05;1.02;;;;;;;12.33;55.77;99592.25;6013466;23;99058;-73
2022/01/04 04:10:08;;;;;;;3.53;0.70;;;;;;;12.52;55.23;99583.16;6008289;23;97763;-74
2022/01/04 04:12:35;;;;;;;3.08;0.65;;;;;;;12.49;54.69;99575.38;6003662;23;96602;-73
2022/01/04 04:15:04;;;;;;;3.88;0.93;;;;;;;12.55;55.15;99575.00;6003359;23;96755;-72
2022/01/04 04:17:30;;;;;;;2.92;0.68;;;;;;;12.47;54.86;99577.28;6002663;23;98823;-75
2022/01/04 04:19:58;;;;;;;2.15;0.90;;;;;;;12.56;54.79;99572.25;6002495;23;98942;-73
2022/01/04 04:22:24;;;;;;;4.15;0.90;;;;;;;12.54;55.03;99571.50;6003050;23;97088;-73
2022/01/04 04:24:50;;;;;;;1.48;0.65;;;;;;;12.48;55.44;99571.88;6003050;23;96732;-73
2022/01/04 04:27:17;;;;;;;3.60;0.77;;;;;;;12.52;55.15;99567.25;6002015;23;98954;-72
2022/01/04 04:29:43;;;;;;;3.60;0.98;;;;;;;12.38;55.17;99557.50;6003638;23;99068;-73
2022/01/04 04:32:10;;;;;;;1.42;0.60;;;;;;;12.48;55.74;99565.72;6002880;23;97030;-73
2022/01/04 04:34:37;;;;;;;3.58;0.93;;;;;;;12.31;55.70;99554.38;6002299;23;96785;-73
2022/01/04 04:37:05;;;;;;;3.20;1.00;;;;;;;12.56;55.73;99556.38;6003532;23;99463;-73
2022/01/04 04:39:32;;;;;;;4.63;1.00;;;;;;;12.56;55.36;99555.50;6002903;23;99713;-72
2022/01/04 04:41:58;;;;;;;2.10;1.38;;;;;;;12.23;56.00;99551.34;6003467;23;96625;-72
2022/01/04 04:44:25;;;;;;;8.63;0.98;;;;;;;12.24;56.44;99545.13;6003741;23;97144;-72
2022/01/04 04:46:51;;;;;;;4.63;1.00;;;;;;;12.31;56.12;99551.75;6003798;23;99433;-73
2022/01/04 04:49:17;;;;;;;3.20;1.20;;;;;;;12.31;56.21;99550.88;6003856;23;99450;-73
2022/01/04 04:51:44;;;;;;;4.53;1.45;;;;;;;12.36;56.31;99548.81;6003579;23;97366;-72
2022/01/04 04:54:11;;;;;;;10.77;1.15;;;;;;;12.30;56.14;99541.22;6003977;23;96799;-73
2022/01/04 04:56:38;;;;;;;3.35;0.93;;;;;;;12.25;56.87;99541.53;6002226;23;98895;-73
2022/01/04 04:59:05;;;;;;;2.83;1.38;;;;;;;12.33;56.34;99530.47;6003292;23;99442;-73
2022/01/04 05:01:31;;;;;;;2.22;1.00;;;;;;;12.21;56.99;99524.09;6003829;23;96653;-73
2022/01/04 05:03:57;;;;;;;5.75;1.00;;;;;;;12.36;56.22;99519.66;6003253;23;96743;-73
2022/01/04 05:06:25;;;;;;;4.55;1.45;;;;;;;12.46;56.13;99518.16;6003486;23;99081;-73
2022/01/04 05:08:52;;;;;;;3.45;1.00;;;;;;;12.46;56.27;99512.84;6003340;23;98786;-73
2022/01/04 05:11:20;;;;;;;5.03;1.10;;;;;;;12.32;56.29;99513.72;6003890;23;96649;-74
2022/01/04 05:13:46;;;;;;;3.75;1.05;;;;;;;12.18;57.02;99508.41;6003880;23;96757;-72
2022/01/04 05:16:13;;;;;;;4.28;1.10;;;;;;;12.05;57.64;99515.41;6003931;23;98911;-73
2022/01/04 05:18:39;;;;;;;3.40;1.13;;;;;;;12.16;57.64;99506.78;6006551;23;98602;-73
2022/01/04 05:21:05;;;;;;;4.60;1.15;;;;;;;12.16;57.42;99493.56;6011649;23;97141;-71
2022/01/04 05:23:32;;;;;;;4.22;1.30;;;;;;;12.03;57.33;99488.16;6011663;23;97143;-72
2022/01/04 05:25:59;;;;;;;4.18;1.35;;;;;;;12.22;57.32;99482.56;6010533;23;98872;-73
2022/01/04 05:28:26;;;;;;;4.88;1.33;;;;;;;12.03;57.39;99480.22;6010769;23;98327;-72
2022/01/04 05:30:53;;;;;;;1.90;1.10;;;;;;;11.98;58.01;99485.81;6004280;23;96615;-73
2022/01/04 05:33:19;;;;;;;3.25;1.23;;;;;;;12.21;57.34;99481.72;6002035;23;97059;-73
2022/01/04 05:35:47;;;;;;;2.97;1.27;;;;;;;12.21;57.54;99481.72;6002202;23;99395;-75
2022/01/04 05:38:14;;;;;;;2.00;1.48;;;;;;;12.40;56.77;99481.47;6004014;23;98892;-73
2022/01/04 05:40:40;;;;;;;6.50;1.50;;;;;;;12.43;56.36;99472.44;6005056;23;96590;-73
2022/01/04 05:43:06;;;;;;;2.88;1.20;;;;;;;12.38;56.49;99470.09;6003248;23;96620;-73
2022/01/04 05:45:34;;;;;;;5.15;1.52;;;;;;;12.36;56.92;99467.53;6001397;23;98972;-73
2022/01/04 05:48:00;;;;;;;5.20;1.40;;;;;;;12.16;57.48;99459.97;6003134;23;98989;-72
2022/01/04 05:50:29;;;;;;;4.10;1.30;;;;;;;12.35;57.20;99452.59;6002638;23;97106;-73
2022/01/04 05:52:55;;;;;;;5.70;1.35;;;;;;;12.35;57.25;99451.72;6003048;23;96889;-72
2022/01/04 05:55:22;;;;;;;3.35;1.27;;;;;;;12.50;57.05;99449.91;6002504;23;98719;-72
2022/01/04 05:57:48;;;;;;;3.45;1.48;;;;;;;12.54;56.55;99454.91;6002812;23;99115;-73
2022/01/04 06:00:15;;;;;;;3.13;1.27;;;;;;;12.40;57.13;99443.50;6003688;23;96606;-73
2022/01/04 06:02:43;;;;;;;3.58;1.45;;;;;;;12.62;56.39;99444.69;6003640;23;97149;-73
2022/01/04 06:05:10;;;;;;;5.25;1.75;;;;;;;12.69;56.06;99437.19;6001914;23;99517;-74
2022/01/04 06:07:37;;;;;;;5.80;1.50;;;;;;;12.53;56.43;99428.53;6003570;23;99432;-73
2022/01/04 06:10:06;;;;;;;4.97;2.10;;;;;;;12.64;56.10;99415.44;6003107;23;97258;-72
2022/01/04 06:15:17;;;;;;;7.00;1.80;;;;;;;12.63;56.27;99403.13;6000750;23;97048;-73
2022/01/04 06:17:47;;;;;;;6.43;2.03;;;;;;;12.52;56.24;99392.38;6003619;23;98820;-74
2022/01/04 06:20:16;;;;;;;5.18;2.15;;;;;;;12.42;56.11;99402.72;6003211;23;96599;-73
2022/01/04 06:22:43;;;;;;;2.95;1.60;;;;;;;12.50;56.49;99395.13;6002672;23;96888;-73
2022/01/04 06:25:16;;;;;;;9.32;1.75;;;;;;;12.63;56.14;99392.53;6002598;23;98845;-72
2022/01/04 06:27:43;;;;;;;3.75;1.63;;;;;;;12.56;56.78;99396.53;6004593;23;99431;-72
2022/01/04 06:30:11;;;;;;;9.55;2.00;;;;;;;12.63;56.45;99392.53;6003952;23;96644;-73
2022/01/04 06:32:37;;;;;;;7.45;2.80;;;;;;;12.69;56.35;99386.81;6004285;23;96645;-74
2022/01/04 06:35:06;;;;;;;2.63;1.75;;;;;;;12.40;57.06;99391.38;6006632;23;99772;-73
2022/01/04 06:37:33;;;;;;;6.20;1.88;;;;;;;12.58;56.77;99389.34;6003581;23;98947;-72
2022/01/04 06:39:59;;;;;;;5.07;2.10;;;;;;;12.52;57.09;99384.44;6002603;23;97122;-73
2022/01/04 06:42:26;;;;;;;5.00;2.15;;;;;;;12.48;57.13;99383.78;6006451;23;96772;-73
2022/01/04 06:44:52;;;;;;;7.22;2.30;;;;;;;12.64;56.92;99370.38;6009460;23;99107;-73
2022/01/04 06:47:18;;;;;;;5.32;2.53;;;;;;;12.73;56.18;99369.78;6010844;23;99121;-72
2022/01/04 06:49:45;;;;;;;6.00;3.03;;;;;;;12.71;56.58;99363.72;6009645;23;96666;-73
2022/01/04 06:52:12;;;;;;;7.63;3.30;;;;;;;12.80;56.36;99360.47;6003454;23;96733;-73
2022/01/04 06:54:39;;;;;;;6.53;3.20;;;;;;;12.76;56.29;99351.03;6001869;23;99395;-73
2022/01/04 06:57:05;;;;;;;8.32;3.63;;;;;;;12.70;56.63;99359.38;6002981;23;99369;-72
2022/01/04 06:59:32;;;;;;;5.05;3.30;;;;;;;12.56;56.70;99364.72;6001976;23;97376;-73
2022/01/04 07:02:00;;;;;;;11.40;4.05;;;;;;;12.64;57.25;99363.28;6006169;23;96806;-73
2022/01/04 07:04:26;;;;;;;10.52;3.75;;;;;;;12.72;56.97;99352.19;6003884;23;99006;-73
2022/01/04 07:06:53;;;;;;;7.95;3.35;;;;;;;12.66;56.98;99365.84;6003114;23;99788;-73
2022/01/04 07:09:20;;;;;;;6.85;4.30;;;;;;;12.76;57.26;99366.91;6002153;23;96654;-74
2022/01/04 07:11:47;;;;;;;6.57;3.50;;;;;;;12.73;56.81;99360.00;6004144;23;96873;-72
2022/01/04 07:14:13;;;;;;;6.88;3.88;;;;;;;12.73;56.59;99357.34;6002056;23;98649;-73
2022/01/04 07:16:39;;;;;;;7.82;3.40;;;;;;;12.78;56.85;99363.22;6003622;23;99045;-73
2022/01/04 07:19:06;;;;;;;8.50;3.70;;;;;;;12.72;56.78;99361.00;6002521;23;96913;-73
2022/01/04 07:21:34;;;;;;;7.57;3.35;;;;;;;12.70;56.91;99372.63;6002516;23;96750;-74
2022/01/04 07:24:04;;;;;;;7.10;3.70;;;;;;;12.73;56.96;99370.63;6001825;23;98831;-72
2022/01/04 07:26:31;;;;;;;8.15;3.28;;;;;;;12.78;56.72;99371.19;6001057;23;97986;-72
2022/01/04 07:28:57;;;;;;;7.38;3.80;;;;;;;12.60;57.16;99360.94;6001837;23;96522;-74
2022/01/04 07:31:24;;;;;;;7.82;3.83;;;;;;;12.82;56.70;99360.34;6003002;23;96862;-73
2022/01/04 07:33:51;;;;;;;8.90;3.72;;;;;;;12.78;56.65;99363.22;6001870;23;99385;-72
2022/01/04 07:36:18;;;;;;;4.93;3.22;;;;;;;12.86;56.35;99352.13;6002245;23;99229;-73
2022/01/04 07:38:45;;;;;;;8.10;3.58;;;;;;;12.77;56.81;99347.41;6001923;23;97240;-74
2022/01/04 07:41:11;;;;;;;5.18;3.13;;;;;;;12.75;56.76;99346.66;6002247;23;96767;-72
2022/01/04 07:43:39;;;;;;;6.45;3.40;;;;;;;12.82;56.32;99345.31;6000964;23;99415;-73
2022/01/04 07:46:06;;;;;;;8.10;3.28;;;;;;;12.75;56.59;99338.72;5999457;23;102048;-73
2022/01/04 07:48:33;;;;;;;6.07;3.17;;;;;;;12.82;56.43;99347.09;6001663;23;96670;-73
2022/01/04 07:50:59;;;;;;;7.70;2.90;;;;;;;12.94;56.00;99339.19;6002531;23;97026;-72
2022/01/04 07:53:29;;;;;;;8.90;3.05;;;;;;;12.93;56.05;99332.19;6002718;23;98927;-74
2022/01/04 07:55:55;;;;;;;5.50;3.20;;;;;;;13.12;55.66;99348.59;6001315;23;98860;-74
2022/01/04 07:58:22;;;;;;;4.95;2.58;;;;;;;13.01;56.32;99334.31;6003277;23;96610;-73
2022/01/04 08:00:50;;;;;;;7.10;2.38;;;;;;;13.13;54.86;99315.78;6010868;23;97062;-73
2022/01/04 08:03:16;;;;;;;7.63;2.47;;;;;;;12.95;55.73;99324.13;6013313;23;99627;-73
2022/01/04 08:05:42;;;;;;;5.85;2.67;;;;;;;13.07;55.44;99324.13;6021014;23;97695;-73
2022/01/04 08:08:09;;;;;;;8.95;2.67;;;;;;;13.06;55.65;99309.19;6021870;23;96477;-73
2022/01/04 08:10:36;;;;;;;7.70;2.67;;;;;;;13.24;55.04;99309.78;6015129;23;96758;-73
2022/01/04 08:13:03;;;;;;;6.40;2.35;;;;;;;13.18;54.84;99304.91;6011249;23;99150;-73
2022/01/04 08:15:29;;;;;;;5.03;2.30;;;;;;;13.11;54.64;99307.09;6013897;23;97980;-72
2022/01/04 08:17:57;;;;;;;4.78;2.03;;;;;;;13.10;54.69;99294.78;6008933;23;97151;-73
2022/01/04 08:20:23;;;;;;;4.03;2.03;;;;;;;13.18;54.73;99291.63;6007812;23;96668;-73
2022/01/04 08:22:50;;;;;;;5.78;2.13;;;;;;;13.25;54.64;99292.91;6001757;23;98152;-75
2022/01/04 08:25:16;;;;;;;7.20;2.30;;;;;;;13.22;54.32;99289.59;6001519;23;98745;-72
2022/01/04 08:27:43;;;;;;;4.18;1.88;;;;;;;13.27;54.52;99284.81;6002297;23;97156;-73
2022/01/04 08:30:11;;;;;;;4.55;1.77;;;;;;;13.15;54.42;99295.34;6002211;23;97153;-73
2022/01/04 08:32:38;;;;;;;8.68;1.88;;;;;;;13.06;54.48;99287.97;6002892;23;99271;-75
2022/01/04 08:35:07;;;;;;;3.03;1.77;;;;;;;13.26;54.33;99291.94;6001583;23;99471;-73
2022/01/04 08:37:33;;;;;;;4.07;2.00;;;;;;;13.27;54.27;99293.63;6003057;23;97010;-72
2022/01/04 08:40:00;;;;;;;12.55;2.17;;;;;;;13.15;54.29;99284.72;6006528;23;96902;-75
2022/01/04 08:42:27;;;;;;;2.45;1.73;;;;;;;12.93;54.55;99273.03;6004137;23;97682;-73
2022/01/04 08:44:55;;;;;;;6.38;1.60;;;;;;;13.14;54.70;99277.72;6001421;23;100195;-75
2022/01/04 08:47:22;;;;;;;3.95;1.88;;;;;;;13.37;54.00;99278.78;6004834;23;96615;-74
2022/01/04 08:49:50;;;;;;;8.02;2.08;;;;;;;13.37;53.87;99283.25;6003036;23;97133;-74
2022/01/04 08:52:18;;;;;;;5.22;1.52;;;;;;;13.36;53.41;99276.22;6003303;23;99593;-74
2022/01/04 08:54:44;;;;;;;4.22;1.60;;;;;;;13.50;53.48;99278.78;6004382;23;99318;-74
2022/01/04 08:57:10;;;;;;;3.80;2.08;;;;;;;13.49;53.15;99277.06;6002926;23;96602;-74
2022/01/04 08:59:37;;;;;;;13.68;2.25;;;;;;;13.56;53.29;99273.88;6002664;23;97425;-75
2022/01/04 09:02:04;;;;;;;9.63;1.98;;;;;;;13.48;53.25;99270.06;6000292;23;99206;-76
2022/01/04 09:04:30;;;;;;;4.38;2.22;;;;;;;13.73;53.13;99264.69;6009771;23;98782;-75
2022/01/04 09:06:56;;;;;;;3.75;1.50;;;;;;;13.56;53.12;99257.94;6004766;23;96816;-75
2022/01/04 09:09:24;;;;;;;3.58;1.63;;;;;;;13.59;52.80;99256.06;6003156;23;97102;-75
2022/01/04 09:11:50;;;;;;;6.60;1.77;;;;;;;13.21;53.48;99251.63;6002637;23;98158;-75
2022/01/04 09:14:24;;;;;;;4.47;1.70;;;;;;;13.11;53.82;99245.25;6003072;23;97258;-74
2022/01/04 09:19:35;;;;;;;3.03;1.42;;;;;;;13.34;53.25;99255.09;6004537;23;96961;-74
2022/01/04 09:22:03;;;;;;;4.38;1.55;;;;;;;13.50;53.29;99249.59;6003011;23;99468;-74
2022/01/04 09:24:30;;;;;;;7.28;1.73;;;;;;;13.45;52.82;99243.75;6002752;23;98170;-76
2022/01/04 09:26:57;;;;;;;4.88;1.67;;;;;;;13.33;52.99;99256.06;6004207;23;96910;-74
2022/01/04 09:29:24;;;;;;;3.33;1.60;;;;;;;13.33;53.16;99240.13;6005385;23;96572;-73
2022/01/04 09:31:53;;;;;;;4.22;1.60;;;;;;;13.51;53.14;99240.66;6001111;23;99976;-74
2022/01/04 09:34:20;;;;;;;2.92;1.25;;;;;;;13.47;52.93;99236.50;6003124;23;99315;-73
2022/01/04 09:36:46;;;;;;;4.13;1.45;;;;;;;13.40;53.40;99244.06;6004075;23;96505;-74
2022/01/04 09:39:16;;;;;;;3.17;1.70;;;;;;;13.63;53.18;99245.09;6004070;23;96729;-74
2022/01/04 09:41:44;;;;;;;4.28;1.40;;;;;;;13.46;53.54;99235.66;6002224;23;99086;-74
2022/01/04 09:44:11;;;;;;;3.45;1.33;;;;;;;13.15;54.55;99230.81;6003279;23;99173;-73
2022/01/04 10:15:41;;;;;;;3.45;1.67;;;;;;;13.28;55.31;99170.66;6005033;23;97302;-78
2022/01/04 10:27:29;;;;;;;3.72;1.92;;;;;;;13.20;55.94;99149.13;5838112;24;98382;-76
2022/01/04 10:30:25;;;;;;;5.22;1.63;;;;;;;13.28;56.04;99145.94;5988209;23;96741;-77
2022/01/04 10:32:58;;;;;;;8.63;1.90;;;;;;;13.40;55.54;99145.91;6015088;23;96689;-78
2022/01/04 10:35:40;;;;;;;3.58;1.63;;;;;;;13.38;55.65;99144.34;6005931;23;99273;-77
2022/01/04 10:58:01;;;;;;;1.30;1.20;;;;;;;13.52;55.39;99138.88;5987893;23;97766;-77
2022/01/04 11:00:46;;;;;;;;;;;;;;;;;;;;;
2022/01/04 11:37:28;;;;;;;2.72;1.52;;;;;;;13.03;56.91;99080.50;6008125;23;96674;-78
2022/01/04 12:20:03;;;;;;;;;;;;;;;;;;;;;
2022/01/04 12:23:03;;;;;;;;;;;;;;;;;;;;;
2022/01/04 12:26:05;;;;;;;3.17;2.00;;;;;;;13.28;56.07;98977.03;5971857;23;114100;-76
2022/01/04 12:32:42;;;;;;;;;;;;;;;;;;;;;
2022/01/04 12:40:54;;;;;;;;;;;;;;;;;;;;;
2022/01/04 12:43:51;;;;;;;;;;;;;;;;;;;;;
2022/01/04 12:46:36;;;;;;;;;;;;;;;13.44;56.75;98985.53;5911620;23;128485;-78
2022/01/04 12:49:14;;;;;;;4.43;1.77;;;;;;;13.47;56.75;98981.78;5945099;23;101106;-79
2022/01/04 13:26:37;;;;;;;;;;;;;;;;;;;;;
2022/01/04 13:29:25;;;;;;;3.30;2.30;;;;;;;13.77;56.50;98971.53;5961836;23;118178;-79
2022/01/04 13:32:24;;;;;;;;;;;;;;;;;;;;;
2022/01/04 13:35:27;;;;;;;4.32;2.58;;;;;;;13.60;57.00;98974.59;5994734;23;127947;-78
2022/01/04 13:38:10;;;;;;;6.18;2.83;;;;;;;13.60;56.56;98969.28;6003001;23;97448;-79
2022/01/04 13:59:01;;;;;;;5.40;2.90;;;;;;;13.16;58.13;98943.47;5793938;24;98179;-81
2022/01/04 14:02:17;;;;;;;;;;;;;;;;;;;;;
2022/01/04 14:05:29;;;;;;;3.97;2.55;;;;;;;13.11;58.40;98935.81;5833346;24;117550;-77
2022/01/04 14:08:20;;;;;;;3.95;2.60;;;;;;;13.09;57.77;98947.50;5971026;23;98972;-77
2022/01/04 14:11:30;;;;;;;;;;;;;;;;;;;;;
2022/01/04 14:14:50;;;;;;;;;;;;;;;;;;;;;
2022/01/04 14:17:32;;;;;;;2.63;2.38;;;;;;;13.29;57.33;98964.59;6003042;23;118928;-77
2022/01/04 14:20:36;;;;;;;;;;;;;;;;;;;;;
2022/01/04 14:31:44;;;;;;;;;;;;;;;;;;;;;
2022/01/04 14:34:44;;;;;;;;;;;;;;;;;;;;;
2022/01/04 14:37:22;;;;;;;4.28;2.65;;;;;;;13.32;57.60;98951.97;5885436;23;117860;-80
2022/01/04 14:40:16;;;;;;;;;;;;;;;;;;;;;
2022/01/04 14:43:22;;;;;;;4.55;2.50;;;;;;;13.27;57.54;98954.09;5992939;23;127864;-77
2022/01/04 14:45:57;;;;;;;4.28;2.67;;;;;;;13.35;57.38;98956.19;5859698;24;101321;-78
2022/01/04 14:48:59;;;;;;;;;;;;;;;;;;;;;
2022/01/04 14:59:35;;;;;;;;;;;;;;;;;;;;;
2022/01/04 15:02:12;;;;;;;3.60;2.28;;;;;;;12.96;57.69;98934.28;5945107;23;117323;-78
2022/01/04 15:05:04;;;;;;;;;;;;;;;;;;;;;
2022/01/04 15:07:55;;;;;;;;;;;;;;;;;;;;;
2022/01/04 15:10:36;;;;;;;2.60;2.30;;;;;;;13.34;57.16;98928.81;5996251;23;119036;-78
2022/01/04 15:13:11;;;;;;;8.73;2.70;;;;;;;13.20;57.25;98930.81;6003255;23;96904;-79
2022/01/04 15:16:36;;;;;;;;;;;;;;;;;;;;;
2022/01/04 15:22:56;;;;;;;6.55;3.35;;;;;;;13.18;57.09;98948.66;5795605;23;97541;-79
2022/01/04 15:25:57;;;;;;;;;;;;;;;;;;;;;
2022/01/04 15:28:50;;;;;;;;;;;;;;;;;;;;;
2022/01/04 15:34:52;;;;;;;;;;;;;;;;;;;;;
2022/01/04 15:37:21;;;;;;;6.82;3.35;;;;;;;13.31;57.09;98949.44;5979639;23;118475;-76
2022/01/04 15:49:34;;;;;;;;;;;;;;;;;;;;;
2022/01/04 15:53:02;;;;;;;8.73;4.28;;;;;;;13.03;57.72;98955.91;5975657;23;100192;-78
2022/01/04 15:55:38;;;;;;;5.97;3.92;;;;;;;13.15;57.10;98969.13;5992796;23;97768;-79
2022/01/04 15:58:11;;;;;;;6.55;4.03;;;;;;;13.15;56.94;98970.94;6000692;23;97081;-77
2022/01/04 16:00:39;;;;;;;7.43;3.60;;;;;;;12.83;57.66;98962.66;6001494;23;96969;-78
2022/01/04 16:03:07;;;;;;;7.55;4.13;;;;;;;12.52;58.30;98969.31;6001609;23;99608;-78
2022/01/04 16:05:39;;;;;;;6.75;4.47;;;;;;;12.70;58.68;98968.00;6001238;23;98814;-79
2022/01/04 16:08:19;;;;;;;;;;;;;;;;;;;;;
2022/01/04 16:10:46;;;;;;;5.95;4.13;;;;;;;12.73;58.36;98975.72;5996710;23;119383;-77
2022/01/04 16:13:17;;;;;;;7.60;4.70;;;;;;;12.90;57.99;98990.41;6005242;23;99451;-78
2022/01/04 16:22:06;;;;;;;7.70;5.13;;;;;;;12.88;57.53;98979.06;6010174;23;96960;-78
2022/01/04 16:24:42;;;;;;;11.45;5.65;;;;;;;12.68;57.54;98985.81;6012677;23;98224;-77
2022/01/04 16:27:17;;;;;;;9.50;5.72;;;;;;;12.75;58.00;98976.47;6008947;23;98975;-78
2022/01/04 16:30:22;;;;;;;10.00;5.50;;;;;;;12.50;58.38;98967.72;6012993;23;96635;-86